createdAt,value
2019-02-11T00:01:14.845Z,1.53
2019-02-11T00:03:42.295Z,1.30
2019-02-11T00:06:11.031Z,1.40
2019-02-11T00:08:38.409Z,1.40
2019-02-11T00:11:05.899Z,1.50
2019-02-11T00:13:33.278Z,1.50
2019-02-11T00:16:00.639Z,1.50
2019-02-11T00:18:30.241Z,1.50
2019-02-11T00:20:57.587Z,1.50
2019-02-11T00:23:25.048Z,1.60
2019-02-11T00:25:52.509Z,2.00
2019-02-11T00:28:19.987Z,1.70
2019-02-11T00:30:47.441Z,1.57
2019-02-11T00:33:15.607Z,1.40
2019-02-11T00:35:43.017Z,1.60
2019-02-11T00:38:10.593Z,1.50
2019-02-11T00:40:37.989Z,1.50
2019-02-11T00:43:05.437Z,1.33
2019-02-11T00:45:32.952Z,1.40
2019-02-11T00:48:00.409Z,1.50
2019-02-11T00:50:47.515Z,1.30
2019-02-11T00:53:15.107Z,1.40
2019-02-11T00:55:42.504Z,1.40
2019-02-11T00:58:09.924Z,1.33
2019-02-11T01:00:37.498Z,1.60
2019-02-11T01:03:05.146Z,1.40
2019-02-11T01:05:32.586Z,1.50
2019-02-11T01:08:00.024Z,1.50
2019-02-11T01:10:27.486Z,1.57
2019-02-11T01:12:54.834Z,1.53
2019-02-11T01:15:22.189Z,1.40
2019-02-11T01:17:49.664Z,1.57
2019-02-11T01:20:17.258Z,1.60
2019-02-11T01:22:44.651Z,1.60
2019-02-11T01:25:12.124Z,1.50
2019-02-11T01:27:39.580Z,1.40
2019-02-11T01:30:09.792Z,1.40
2019-02-11T01:32:37.585Z,1.30
2019-02-11T01:35:07.261Z,1.60
2019-02-11T01:37:34.714Z,1.53
2019-02-11T01:40:02.057Z,1.40
2019-02-11T01:42:29.464Z,1.50
2019-02-11T01:44:56.961Z,1.50
2019-02-11T01:47:24.395Z,1.60
2019-02-11T01:49:52.922Z,1.50
2019-02-11T01:52:20.304Z,1.50
2019-02-11T01:54:47.756Z,1.50
2019-02-11T01:57:15.058Z,1.50
2019-02-11T01:59:42.376Z,1.40
2019-02-11T02:02:09.756Z,1.30
2019-02-11T02:04:37.076Z,1.50
2019-02-11T02:07:04.425Z,1.43
2019-02-11T02:09:31.751Z,1.47
2019-02-11T02:12:00.270Z,1.50
2019-02-11T02:14:27.552Z,1.40
2019-02-11T02:16:54.806Z,1.60
2019-02-11T02:19:22.474Z,1.50
2019-02-11T02:21:49.847Z,1.50
2019-02-11T02:24:17.337Z,1.50
2019-02-11T02:26:44.669Z,1.40
2019-02-11T02:29:12.086Z,1.60
2019-02-11T02:31:39.353Z,1.50
2019-02-11T02:34:06.749Z,1.50
2019-02-11T02:36:34.083Z,1.70
2019-02-11T02:39:01.515Z,2.10
2019-02-11T02:41:28.859Z,1.50
2019-02-11T02:43:56.254Z,1.30
2019-02-11T02:46:23.663Z,1.40
2019-02-11T02:48:51.005Z,1.40
2019-02-11T02:51:18.361Z,1.50
2019-02-11T02:53:45.713Z,1.60
2019-02-11T02:56:13.108Z,1.60
2019-02-11T02:58:40.481Z,1.60
2019-02-11T03:01:07.861Z,1.40
2019-02-11T03:03:35.263Z,1.40
2019-02-11T03:06:02.664Z,1.60
2019-02-11T03:08:30.062Z,1.70
2019-02-11T03:10:57.455Z,1.40
2019-02-11T03:13:24.637Z,1.43
2019-02-11T03:15:52.089Z,1.60
2019-02-11T03:18:19.441Z,1.50
2019-02-11T03:20:46.829Z,1.70
2019-02-11T03:23:14.240Z,1.60
2019-02-11T03:25:41.655Z,1.70
2019-02-11T03:28:09.052Z,1.50
2019-02-11T03:30:36.522Z,1.50
2019-02-11T03:33:03.821Z,1.60
2019-02-11T03:35:31.220Z,1.50
2019-02-11T03:37:58.545Z,1.80
2019-02-11T03:40:25.930Z,1.63
2019-02-11T03:42:53.427Z,1.50
2019-02-11T03:45:20.849Z,1.40
2019-02-11T03:47:48.212Z,1.80
2019-02-11T03:50:15.610Z,1.70
2019-02-11T03:52:42.882Z,1.70
2019-02-11T03:55:10.167Z,1.60
2019-02-11T03:57:37.624Z,1.63
2019-02-11T04:00:05.314Z,1.80
2019-02-11T04:02:32.659Z,1.80
2019-02-11T04:05:00.276Z,1.77
2019-02-11T04:07:27.818Z,1.70
2019-02-11T04:09:55.206Z,1.80
2019-02-11T04:12:22.563Z,1.50
2019-02-11T04:14:49.880Z,1.70
2019-02-11T04:17:17.277Z,1.37
2019-02-11T04:19:45.084Z,1.60
2019-02-11T04:22:12.580Z,1.87
2019-02-11T04:24:39.891Z,1.80
2019-02-11T04:27:07.182Z,1.60
2019-02-11T04:29:34.438Z,1.67
2019-02-11T04:32:01.716Z,1.73
2019-02-11T04:34:29.063Z,1.50
2019-02-11T04:36:56.425Z,1.70
2019-02-11T04:39:23.788Z,1.60
2019-02-11T04:41:51.062Z,1.80
2019-02-11T04:44:18.365Z,2.40
2019-02-11T04:46:45.589Z,1.77
2019-02-11T04:49:14.056Z,1.67
2019-02-11T04:51:41.524Z,1.70
2019-02-11T04:54:08.965Z,1.90
2019-02-11T04:56:36.368Z,1.50
2019-02-11T04:59:03.743Z,1.80
2019-02-11T05:01:31.083Z,1.80
2019-02-11T05:03:58.447Z,1.70
2019-02-11T05:06:25.717Z,1.80
2019-02-11T05:08:53.190Z,1.73
2019-02-11T05:11:20.604Z,1.80
2019-02-11T05:13:48.059Z,1.73
2019-02-11T05:16:15.418Z,1.83
2019-02-11T05:18:42.668Z,1.80
2019-02-11T05:21:10.100Z,1.80
2019-02-11T05:23:37.352Z,1.80
2019-02-11T05:26:04.733Z,1.80
2019-02-11T05:28:32.064Z,1.83
2019-02-11T05:30:59.390Z,1.80
2019-02-11T05:33:26.699Z,1.90
2019-02-11T05:35:59.074Z,1.80
2019-02-11T05:38:26.573Z,1.83
2019-02-11T05:40:56.517Z,2.07
2019-02-11T05:43:24.029Z,1.83
2019-02-11T05:45:51.357Z,1.80
2019-02-11T05:48:18.713Z,1.80
2019-02-11T05:50:45.929Z,2.20
2019-02-11T05:53:13.317Z,2.00
2019-02-11T05:55:41.696Z,1.80
2019-02-11T05:58:09.061Z,1.80
2019-02-11T06:00:36.493Z,1.53
2019-02-11T06:03:03.965Z,1.83
2019-02-11T06:05:32.093Z,1.90
2019-02-11T06:07:59.537Z,1.90
2019-02-11T06:10:27.247Z,1.83
2019-02-11T06:12:55.134Z,2.00
2019-02-11T06:15:22.573Z,1.93
2019-02-11T06:17:49.939Z,1.90
2019-02-11T06:20:19.551Z,1.87
2019-02-11T06:22:47.295Z,2.03
2019-02-11T06:25:14.647Z,2.00
2019-02-11T06:27:42.157Z,2.00
2019-02-11T06:30:10.112Z,2.20
2019-02-11T06:32:37.421Z,1.87
2019-02-11T06:35:05.033Z,1.87
2019-02-11T06:37:32.457Z,2.00
2019-02-11T06:39:59.721Z,1.90
2019-02-11T06:42:27.125Z,1.90
2019-02-11T06:45:03.499Z,2.00
2019-02-11T06:47:30.952Z,2.00
2019-02-11T06:49:58.388Z,1.70
2019-02-11T06:52:25.792Z,1.93
2019-02-11T06:54:53.223Z,2.00
2019-02-11T06:57:20.533Z,2.00
2019-02-11T06:59:47.894Z,2.30
2019-02-11T07:02:15.283Z,2.20
2019-02-11T07:04:42.607Z,1.90
2019-02-11T07:07:10.114Z,1.90
2019-02-11T07:09:39.770Z,2.03
2019-02-11T07:12:07.168Z,2.00
2019-02-11T07:17:26.079Z,1.90
2019-02-11T07:19:53.556Z,2.17
2019-02-11T07:22:25.632Z,1.80
2019-02-11T07:24:55.648Z,1.90
2019-02-11T07:27:27.018Z,1.93
2019-02-11T07:29:56.400Z,2.30
2019-02-11T07:32:27.227Z,2.03
2019-02-11T07:34:54.594Z,2.00
2019-02-11T07:37:22.263Z,2.10
2019-02-11T07:39:52.860Z,2.00
2019-02-11T07:42:40.458Z,2.10
2019-02-11T07:45:30.335Z,2.00
2019-02-11T07:47:58.182Z,2.37
2019-02-11T07:50:25.507Z,2.33
2019-02-11T07:52:52.848Z,2.30
2019-02-11T07:55:20.228Z,2.00
2019-02-11T07:57:47.676Z,2.30
2019-02-11T08:00:15.089Z,2.23
2019-02-11T08:02:42.523Z,3.53
2019-02-11T08:05:10.009Z,2.03
2019-02-11T08:07:37.309Z,2.40
2019-02-11T08:10:04.690Z,2.27
2019-02-11T08:12:32.142Z,2.27
2019-02-11T08:14:59.532Z,2.30
2019-02-11T08:17:26.930Z,2.20
2019-02-11T08:19:55.694Z,2.17
2019-02-11T08:22:23.088Z,2.43
2019-02-11T08:24:50.369Z,2.40
2019-02-11T08:27:17.725Z,2.30
2019-02-11T08:29:46.174Z,2.20
2019-02-11T08:32:13.941Z,2.30
2019-02-11T08:34:41.323Z,2.20
2019-02-11T08:37:08.719Z,2.10
2019-02-11T08:39:36.216Z,2.20
2019-02-11T08:42:03.625Z,2.63
2019-02-11T08:44:30.880Z,2.30
2019-02-11T08:46:58.275Z,2.63
2019-02-11T08:49:25.573Z,2.20
2019-02-11T08:51:52.874Z,2.30
2019-02-11T08:54:20.387Z,2.53
2019-02-11T08:56:47.732Z,2.40
2019-02-11T08:59:15.146Z,2.50
2019-02-11T09:01:42.557Z,2.47
2019-02-11T09:04:09.869Z,2.40
2019-02-11T09:06:37.223Z,2.37
2019-02-11T09:09:05.315Z,2.83
2019-02-11T09:11:32.634Z,2.70
2019-02-11T09:14:00.026Z,2.13
2019-02-11T09:16:27.407Z,2.43
2019-02-11T09:18:54.910Z,2.40
2019-02-11T09:21:22.321Z,2.33
2019-02-11T09:23:49.760Z,2.30
2019-02-11T09:26:17.093Z,2.30
2019-02-11T09:28:44.413Z,2.87
2019-02-11T09:31:11.728Z,3.30
2019-02-11T09:33:39.109Z,2.40
2019-02-11T09:36:06.466Z,2.27
2019-02-11T09:38:33.825Z,2.17
2019-02-11T09:41:01.123Z,3.03
2019-02-11T09:43:28.421Z,2.07
2019-02-11T09:46:03.576Z,2.10
2019-02-11T09:48:25.008Z,2.10
2019-02-11T09:50:52.530Z,2.13
2019-02-11T09:53:19.915Z,2.20
2019-02-11T09:55:47.330Z,3.07
2019-02-11T09:58:14.753Z,2.90
2019-02-11T10:00:42.245Z,2.33
2019-02-11T10:03:09.609Z,2.10
2019-02-11T10:05:37.069Z,3.77
2019-02-11T10:08:04.406Z,2.83
2019-02-11T10:10:34.733Z,4.20
2019-02-11T10:13:02.003Z,3.50
2019-02-11T10:15:29.801Z,2.60
2019-02-11T10:17:59.019Z,4.00
2019-02-11T10:20:26.399Z,2.70
2019-02-11T10:22:53.755Z,4.00
2019-02-11T10:25:22.725Z,3.70
2019-02-11T10:27:50.423Z,2.40
2019-02-11T10:30:17.904Z,3.87
2019-02-11T10:32:45.332Z,2.43
2019-02-11T10:35:13.383Z,2.47
2019-02-11T10:37:40.780Z,3.67
2019-02-11T10:40:10.217Z,2.33
2019-02-11T10:42:37.626Z,2.63
2019-02-11T10:45:05.969Z,2.40
2019-02-11T10:47:33.340Z,2.40
2019-02-11T10:50:00.868Z,2.50
2019-02-11T10:52:28.248Z,2.50
2019-02-11T10:54:55.748Z,3.03
2019-02-11T10:57:24.476Z,2.50
2019-02-11T10:59:51.839Z,2.93
2019-02-11T11:02:19.148Z,2.50
2019-02-11T11:04:46.658Z,3.33
2019-02-11T11:07:14.230Z,2.47
2019-02-11T11:09:42.858Z,2.60
2019-02-11T11:12:10.244Z,3.33
2019-02-11T11:14:37.661Z,3.77
2019-02-11T11:17:06.662Z,2.83
2019-02-11T11:19:34.164Z,2.90
2019-02-11T11:22:01.633Z,2.67
2019-02-11T11:24:29.068Z,2.80
2019-02-11T11:26:56.792Z,7.27
2019-02-11T11:29:24.334Z,4.70
2019-02-11T11:32:11.334Z,4.10
2019-02-11T11:34:38.633Z,3.77
2019-02-11T11:37:05.947Z,4.33
2019-02-11T11:39:55.862Z,3.47
2019-02-11T11:42:23.350Z,3.23
2019-02-11T11:44:50.729Z,3.50
2019-02-11T11:47:18.502Z,2.73
2019-02-11T11:49:45.784Z,3.40
2019-02-11T11:52:15.988Z,2.30
2019-02-11T11:54:43.285Z,3.13
2019-02-11T11:57:10.570Z,2.70
2019-02-11T11:59:39.260Z,2.53
2019-02-11T12:02:26.382Z,2.10
2019-02-11T12:04:53.793Z,2.37
2019-02-11T12:07:23.754Z,2.40
2019-02-11T12:09:51.601Z,2.97
2019-02-11T12:12:19.021Z,2.27
2019-02-11T12:14:46.406Z,2.17
2019-02-11T12:17:13.806Z,3.80
2019-02-11T12:19:41.258Z,2.87
2019-02-11T12:22:28.174Z,2.77
2019-02-11T12:24:55.740Z,3.97
2019-02-11T12:27:23.240Z,3.93
2019-02-11T12:29:50.699Z,2.90
2019-02-11T12:32:18.115Z,2.67
2019-02-11T12:34:45.611Z,2.67
2019-02-11T12:37:13.065Z,6.47
2019-02-11T12:39:40.499Z,3.43
2019-02-11T12:42:07.897Z,2.63
2019-02-11T12:44:38.424Z,2.33
2019-02-11T12:47:13.848Z,3.73
2019-02-11T12:49:35.027Z,2.63
2019-02-11T12:52:02.681Z,3.73
2019-02-11T12:54:30.085Z,2.60
2019-02-11T12:56:57.385Z,2.93
2019-02-11T12:59:24.879Z,3.57
2019-02-11T13:01:52.321Z,3.83
2019-02-11T13:04:22.311Z,2.57
2019-02-11T13:06:51.098Z,3.40
2019-02-11T13:09:18.474Z,3.43
2019-02-11T13:11:47.648Z,2.50
2019-02-11T13:14:15.133Z,3.23
2019-02-11T13:16:42.599Z,2.50
2019-02-11T13:19:10.290Z,4.00
2019-02-11T13:21:37.818Z,3.20
2019-02-11T13:24:05.244Z,3.47
2019-02-11T13:26:32.659Z,2.17
2019-02-11T13:29:00.146Z,3.13
2019-02-11T13:31:27.663Z,3.37
2019-02-11T13:33:56.238Z,4.50
2019-02-11T13:36:23.482Z,3.27
2019-02-11T13:38:50.951Z,2.40
2019-02-11T13:41:37.941Z,3.03
2019-02-11T13:44:05.337Z,2.30
2019-02-11T13:46:35.023Z,2.50
2019-02-11T13:49:02.507Z,2.60
2019-02-11T13:51:29.943Z,2.40
2019-02-11T13:53:57.334Z,2.37
2019-02-11T13:56:24.774Z,2.40
2019-02-11T13:58:52.608Z,2.50
2019-02-11T14:01:20.013Z,3.13
2019-02-11T14:03:47.390Z,3.23
2019-02-11T14:06:14.906Z,2.87
2019-02-11T14:08:42.324Z,2.93
2019-02-11T14:11:09.736Z,2.77
2019-02-11T14:13:38.929Z,2.60
2019-02-11T14:16:06.380Z,3.20
2019-02-11T14:18:33.916Z,2.50
2019-02-11T14:21:04.186Z,2.97
2019-02-11T14:23:31.568Z,3.10
2019-02-11T14:26:20.653Z,4.00
2019-02-11T14:28:49.578Z,3.13
2019-02-11T14:31:17.398Z,2.93
2019-02-11T14:33:44.730Z,4.97
2019-02-11T14:36:12.066Z,3.40
2019-02-11T14:38:39.572Z,3.77
2019-02-11T14:41:07.016Z,3.40
2019-02-11T14:43:34.312Z,3.20
2019-02-11T14:46:01.737Z,3.20
2019-02-11T14:48:29.572Z,4.07
2019-02-11T14:50:57.319Z,3.27
2019-02-11T14:53:24.708Z,4.20
2019-02-11T14:55:52.095Z,3.30
2019-02-11T14:58:19.392Z,3.47
2019-02-11T15:00:46.802Z,3.60
2019-02-11T15:03:14.200Z,3.77
2019-02-11T15:05:41.514Z,3.00
2019-02-11T15:08:08.914Z,3.17
2019-02-11T15:10:36.493Z,3.67
2019-02-11T15:13:03.755Z,3.50
2019-02-11T15:15:31.083Z,3.03
2019-02-11T15:17:58.493Z,3.27
2019-02-11T15:20:25.794Z,2.50
2019-02-11T15:22:53.136Z,2.60
2019-02-11T15:25:20.467Z,2.80
2019-02-11T15:27:47.872Z,4.03
2019-02-11T15:30:17.028Z,2.60
2019-02-11T15:32:44.451Z,3.00
2019-02-11T15:35:12.222Z,2.80
2019-02-11T15:37:39.722Z,3.13
2019-02-11T15:40:09.987Z,2.93
2019-02-11T15:42:37.422Z,5.10
2019-02-11T15:45:05.106Z,3.47
2019-02-11T15:47:32.451Z,2.63
2019-02-11T15:49:59.748Z,2.80
2019-02-11T15:52:27.136Z,5.13
2019-02-11T15:54:54.534Z,3.43
2019-02-11T15:57:21.793Z,2.80
2019-02-11T15:59:49.520Z,4.00
2019-02-11T16:02:16.932Z,3.80
2019-02-11T16:04:44.316Z,2.40
2019-02-11T16:07:11.864Z,2.70
2019-02-11T16:09:39.271Z,2.73
2019-02-11T16:12:06.672Z,3.77
2019-02-11T16:14:34.198Z,2.27
2019-02-11T16:17:01.648Z,2.83
2019-02-11T16:19:42.028Z,2.83
2019-02-11T16:22:09.398Z,3.47
2019-02-11T16:24:36.788Z,3.03
2019-02-11T16:27:04.283Z,2.80
2019-02-11T16:29:31.527Z,3.07
2019-02-11T16:32:00.768Z,4.13
2019-02-11T16:34:28.840Z,3.57
2019-02-11T16:36:56.510Z,3.47
2019-02-11T16:39:24.017Z,2.83
2019-02-11T16:41:51.505Z,2.97
2019-02-11T16:44:19.020Z,3.23
2019-02-11T16:46:46.386Z,3.90
2019-02-11T16:49:15.034Z,2.83
2019-02-11T16:51:42.354Z,4.17
2019-02-11T16:54:09.674Z,3.90
2019-02-11T16:56:37.117Z,4.00
2019-02-11T16:59:04.603Z,3.97
2019-02-11T17:01:31.917Z,3.10
2019-02-11T17:03:59.342Z,4.03
2019-02-11T17:06:27.118Z,4.00
2019-02-11T17:08:54.835Z,3.60
2019-02-11T17:11:22.361Z,3.33
2019-02-11T17:13:49.769Z,3.70
2019-02-11T17:16:27.418Z,4.03
2019-02-11T17:18:55.012Z,4.17
2019-02-11T17:21:22.606Z,3.57
2019-02-11T17:23:50.349Z,3.60
2019-02-11T17:26:21.125Z,3.07
2019-02-11T17:28:48.730Z,3.47
2019-02-11T17:31:17.232Z,3.60
2019-02-11T17:33:44.685Z,3.47
2019-02-11T17:36:12.141Z,3.67
2019-02-11T17:38:39.657Z,3.43
2019-02-11T17:41:07.034Z,3.40
2019-02-11T17:43:34.645Z,3.73
2019-02-11T17:46:02.077Z,3.63
2019-02-11T17:48:29.815Z,3.63
2019-02-11T17:50:57.244Z,3.47
2019-02-11T17:53:24.711Z,3.03
2019-02-11T17:55:52.111Z,3.43
2019-02-11T17:58:19.403Z,3.70
2019-02-11T18:00:50.611Z,3.43
2019-02-11T18:03:17.879Z,4.37
2019-02-11T18:05:45.653Z,4.83
2019-02-11T18:08:13.131Z,5.53
2019-02-11T18:10:40.507Z,3.70
2019-02-11T18:13:07.888Z,2.57
2019-02-11T18:15:36.031Z,4.07
2019-02-11T18:18:03.365Z,3.30
2019-02-11T18:20:30.805Z,3.17
2019-02-11T18:22:58.225Z,3.23
2019-02-11T18:25:25.511Z,2.90
2019-02-11T18:27:52.906Z,3.80
2019-02-11T18:30:41.476Z,2.90
2019-02-11T18:33:08.792Z,2.50
2019-02-11T18:35:36.189Z,3.63
2019-02-11T18:38:03.553Z,4.43
2019-02-11T18:40:31.496Z,4.43
2019-02-11T18:42:58.950Z,4.00
2019-02-11T18:45:26.392Z,4.23
2019-02-11T18:47:57.028Z,3.37
2019-02-11T18:50:24.664Z,3.23
2019-02-11T18:52:51.838Z,3.00
2019-02-11T18:55:22.919Z,3.60
2019-02-11T18:57:50.342Z,4.60
2019-02-11T19:00:18.380Z,5.80
2019-02-11T19:02:45.780Z,3.83
2019-02-11T19:05:13.756Z,3.97
2019-02-11T19:07:41.358Z,4.30
2019-02-11T19:10:09.891Z,2.93
2019-02-11T19:12:37.356Z,4.67
2019-02-11T19:15:26.028Z,3.97
2019-02-11T19:17:53.366Z,4.00
2019-02-11T19:20:20.825Z,3.70
2019-02-11T19:22:48.201Z,3.47
2019-02-11T19:25:15.644Z,3.53
2019-02-11T19:27:43.039Z,3.63
2019-02-11T19:30:17.563Z,3.97
2019-02-11T19:32:44.955Z,4.17
2019-02-11T19:35:12.275Z,3.57
2019-02-11T19:37:40.548Z,4.00
2019-02-11T19:40:08.511Z,3.57
2019-02-11T19:42:35.910Z,4.97
2019-02-11T19:45:03.940Z,4.10
2019-02-11T19:47:31.556Z,3.20
2019-02-11T19:49:58.968Z,3.93
2019-02-11T19:52:26.387Z,3.57
2019-02-11T19:54:56.526Z,4.33
2019-02-11T19:57:25.412Z,4.10
2019-02-11T19:59:53.075Z,3.80
2019-02-11T20:02:20.414Z,3.83
2019-02-11T20:04:48.059Z,3.70
2019-02-11T20:07:15.481Z,4.10
2019-02-11T20:09:43.084Z,3.43
2019-02-11T20:12:11.858Z,4.87
2019-02-11T20:14:39.263Z,4.03
2019-02-11T20:17:06.866Z,3.90
2019-02-11T20:19:34.397Z,3.90
2019-02-11T20:22:01.885Z,3.87
2019-02-11T20:24:29.374Z,3.00
2019-02-11T20:26:56.845Z,3.57
2019-02-11T20:29:24.385Z,3.23
2019-02-11T20:31:54.220Z,3.30
2019-02-11T20:34:21.619Z,4.03
2019-02-11T20:36:49.134Z,3.93
2019-02-11T20:39:16.595Z,3.07
2019-02-11T20:41:44.060Z,3.60
2019-02-11T20:44:11.885Z,3.87
2019-02-11T20:46:40.759Z,3.43
2019-02-11T20:49:17.219Z,3.30
2019-02-11T20:51:44.483Z,4.77
2019-02-11T20:54:11.949Z,3.37
2019-02-11T20:56:39.432Z,4.00
2019-02-11T20:59:07.323Z,3.23
2019-02-11T21:01:36.855Z,3.33
2019-02-11T21:04:04.274Z,3.20
2019-02-11T21:06:31.703Z,3.70
2019-02-11T21:08:59.203Z,4.90
2019-02-11T21:11:26.568Z,4.27
2019-02-11T21:13:54.019Z,3.93
2019-02-11T21:16:21.534Z,3.20
2019-02-11T21:18:48.963Z,3.23
2019-02-11T21:21:16.437Z,3.13
2019-02-11T21:23:46.413Z,3.00
2019-02-11T21:26:13.839Z,3.13
2019-02-11T21:28:41.305Z,3.30
2019-02-11T21:31:08.736Z,2.97
2019-02-11T21:33:36.227Z,3.70
2019-02-11T21:36:06.117Z,2.90
2019-02-11T21:38:33.520Z,3.07
2019-02-11T21:41:00.941Z,3.73
2019-02-11T21:43:28.382Z,2.37
2019-02-11T21:45:55.764Z,2.20
2019-02-11T21:48:23.226Z,2.60
2019-02-11T21:50:52.042Z,1.90
2019-02-11T21:53:19.449Z,3.57
2019-02-11T21:55:46.915Z,2.17
2019-02-11T21:58:14.335Z,1.90
2019-02-11T22:00:41.765Z,2.00
2019-02-11T22:03:09.110Z,1.90
2019-02-11T22:05:36.498Z,1.83
2019-02-11T22:08:03.862Z,1.90
2019-02-11T22:10:31.372Z,1.77
2019-02-11T22:12:58.761Z,1.90
2019-02-11T22:15:29.163Z,1.80
2019-02-11T22:17:56.704Z,2.17
2019-02-11T22:20:24.148Z,1.90
2019-02-11T22:22:51.483Z,2.20
2019-02-11T22:25:18.896Z,2.47
2019-02-11T22:27:46.444Z,2.27
2019-02-11T22:30:15.936Z,2.60
2019-02-11T22:32:43.350Z,2.70
2019-02-11T22:35:10.888Z,2.90
2019-02-11T22:37:40.107Z,2.93
2019-02-11T22:40:08.170Z,3.23
2019-02-11T22:42:35.616Z,3.53
2019-02-11T22:45:03.024Z,3.60
2019-02-11T22:47:30.480Z,3.30
2019-02-11T22:49:57.860Z,3.87
2019-02-11T22:52:25.222Z,3.40
2019-02-11T22:54:52.538Z,3.53
2019-02-11T22:57:19.922Z,3.47
2019-02-11T22:59:47.266Z,4.03
2019-02-11T23:02:14.690Z,3.50
2019-02-11T23:04:42.162Z,2.93
2019-02-11T23:07:09.428Z,4.23
2019-02-11T23:09:36.795Z,3.07
2019-02-11T23:12:04.072Z,3.93
2019-02-11T23:14:31.401Z,3.20
2019-02-11T23:16:58.832Z,2.77
2019-02-11T23:19:26.215Z,3.83
2019-02-11T23:21:53.587Z,4.40
2019-02-11T23:24:20.842Z,4.07
2019-02-11T23:26:48.168Z,3.63
2019-02-11T23:29:15.659Z,3.37
2019-02-11T23:31:43.012Z,3.80
2019-02-11T23:34:10.266Z,3.80
2019-02-11T23:36:37.569Z,4.07
2019-02-11T23:39:07.283Z,3.33
2019-02-11T23:41:34.638Z,3.80
2019-02-11T23:44:02.010Z,3.70
2019-02-11T23:46:29.376Z,4.20
2019-02-11T23:48:56.712Z,4.13
2019-02-11T23:51:24.142Z,4.13
2019-02-11T23:53:51.435Z,4.20
2019-02-11T23:56:18.711Z,5.70
2019-02-11T23:58:46.075Z,4.60
